createdAt,value
2018-03-20T00:00:03.073Z,68.70
2018-03-20T00:02:31.739Z,73.95
2018-03-20T00:05:00.067Z,65.15
2018-03-20T00:07:28.387Z,87.35
2018-03-20T00:09:58.580Z,69.18
2018-03-20T00:12:27.726Z,70.07
2018-03-20T00:14:56.789Z,77.20
2018-03-20T00:17:25.967Z,78.55
2018-03-20T00:19:54.294Z,74.53
2018-03-20T00:22:22.616Z,90.45
2018-03-20T00:24:51.618Z,85.15
2018-03-20T00:27:21.216Z,74.10
2018-03-20T00:29:49.596Z,78.97
2018-03-20T00:32:19.408Z,74.62
2018-03-20T00:34:48.610Z,67.90
2018-03-20T00:37:16.933Z,74.07
2018-03-20T00:39:45.651Z,64.10
2018-03-20T00:42:13.947Z,75.12
2018-03-20T00:44:42.271Z,76.00
2018-03-20T00:47:11.773Z,63.72
2018-03-20T00:49:40.085Z,65.65
2018-03-20T00:52:08.862Z,71.43
2018-03-20T00:54:37.941Z,77.00
2018-03-20T00:57:07.075Z,70.68
2018-03-20T00:59:35.385Z,75.90
2018-03-20T01:02:04.590Z,87.30
2018-03-20T01:04:32.891Z,63.35
2018-03-20T01:07:02.779Z,70.95
2018-03-20T01:09:32.332Z,73.68
2018-03-20T01:12:03.943Z,73.85
2018-03-20T01:14:32.229Z,72.55
2018-03-20T01:17:01.448Z,73.20
2018-03-20T01:19:29.767Z,68.43
2018-03-20T01:21:58.067Z,69.15
2018-03-20T01:24:27.002Z,72.90
2018-03-20T01:26:55.329Z,78.37
2018-03-20T01:29:23.641Z,79.22
2018-03-20T01:31:53.420Z,77.62
2018-03-20T01:34:21.744Z,84.95
2018-03-20T01:36:50.066Z,78.97
2018-03-20T01:39:19.966Z,92.93
2018-03-20T01:41:48.302Z,85.50
2018-03-20T01:44:20.674Z,79.15
2018-03-20T01:46:50.361Z,92.72
2018-03-20T01:49:18.673Z,90.30
2018-03-20T01:51:46.998Z,94.80
2018-03-20T01:54:15.888Z,100.80
2018-03-20T01:56:44.978Z,92.07
2018-03-20T01:59:13.293Z,112.10
2018-03-20T02:01:42.511Z,102.03
2018-03-20T02:04:10.839Z,116.72
2018-03-20T02:06:39.154Z,105.85
2018-03-20T02:09:08.052Z,107.03
2018-03-20T02:11:36.378Z,110.72
2018-03-20T02:14:06.600Z,123.25
2018-03-20T02:16:36.414Z,131.77
2018-03-20T02:19:04.728Z,121.93
2018-03-20T02:21:33.067Z,142.23
2018-03-20T02:24:01.937Z,139.75
2018-03-20T02:26:30.260Z,151.85
2018-03-20T02:28:58.621Z,139.85
2018-03-20T02:31:27.589Z,165.73
2018-03-20T02:33:56.641Z,155.57
2018-03-20T02:36:25.012Z,161.18
2018-03-20T02:38:53.915Z,163.45
2018-03-20T02:41:22.206Z,148.25
2018-03-20T02:43:50.510Z,165.05
2018-03-20T02:46:21.581Z,138.48
2018-03-20T02:48:49.895Z,153.32
2018-03-20T02:51:18.371Z,155.10
2018-03-20T02:53:47.323Z,161.98
2018-03-20T02:56:15.637Z,149.30
2018-03-20T02:58:43.978Z,136.45
2018-03-20T03:01:13.400Z,142.15
2018-03-20T03:03:41.704Z,130.48
2018-03-20T03:06:10.783Z,125.65
2018-03-20T03:08:40.413Z,118.62
2018-03-20T03:11:08.752Z,115.30
2018-03-20T03:13:37.048Z,112.00
2018-03-20T03:16:08.016Z,112.47
2018-03-20T03:18:36.353Z,134.87
2018-03-20T03:21:04.634Z,109.57
2018-03-20T03:23:33.618Z,108.90
2018-03-20T03:26:01.947Z,108.95
2018-03-20T03:28:31.039Z,92.45
2018-03-20T03:31:00.773Z,95.15
2018-03-20T03:33:29.095Z,94.87
2018-03-20T03:35:57.442Z,83.55
2018-03-20T03:38:27.548Z,79.05
2018-03-20T03:40:55.875Z,80.62
2018-03-20T03:43:24.190Z,89.65
2018-03-20T03:45:53.104Z,78.70
2018-03-20T03:48:21.399Z,75.93
2018-03-20T03:50:49.736Z,75.62
2018-03-20T03:53:18.754Z,71.25
2018-03-20T03:55:47.075Z,76.00
2018-03-20T03:58:15.375Z,60.60
2018-03-20T04:00:44.488Z,66.82
2018-03-20T04:03:12.802Z,59.50
2018-03-20T04:05:41.110Z,67.22
2018-03-20T04:08:11.015Z,48.50
2018-03-20T04:10:40.090Z,49.70
2018-03-20T04:13:08.388Z,51.15
2018-03-20T04:15:37.175Z,48.53
2018-03-20T04:18:06.998Z,46.55
2018-03-20T04:20:35.326Z,41.58
2018-03-20T04:23:04.071Z,42.83
2018-03-20T04:25:32.385Z,48.28
2018-03-20T04:28:01.455Z,60.95
2018-03-20T04:30:30.814Z,75.57
2018-03-20T04:32:59.116Z,61.50
2018-03-20T04:35:27.437Z,62.15
2018-03-20T04:37:56.955Z,66.10
2018-03-20T04:40:26.059Z,64.25
2018-03-20T04:42:55.148Z,71.72
2018-03-20T04:45:24.703Z,70.28
2018-03-20T04:47:52.987Z,62.85
2018-03-20T04:50:21.986Z,73.57
2018-03-20T04:52:51.329Z,64.30
2018-03-20T04:55:19.640Z,70.05
2018-03-20T04:57:47.996Z,62.75
2018-03-20T05:00:17.634Z,67.65
2018-03-20T05:02:45.937Z,61.88
2018-03-20T05:05:14.311Z,64.57
2018-03-20T05:07:43.261Z,63.60
2018-03-20T05:10:11.604Z,63.03
2018-03-20T05:12:39.909Z,65.75
2018-03-20T05:15:09.074Z,56.75
2018-03-20T05:20:38.343Z,53.38
2018-03-20T05:23:16.284Z,63.70
2018-03-20T05:25:45.446Z,59.90
2018-03-20T05:28:13.748Z,55.38
2018-03-20T05:30:42.139Z,67.78
2018-03-20T05:33:11.206Z,58.55
2018-03-20T05:35:40.430Z,69.35
2018-03-20T05:38:08.757Z,57.40
2018-03-20T05:40:37.497Z,59.70
2018-03-20T05:43:06.579Z,65.57
2018-03-20T05:45:34.990Z,52.72
2018-03-20T05:48:10.870Z,49.13
2018-03-20T05:51:00.023Z,56.05
2018-03-20T05:53:29.294Z,49.83
2018-03-20T05:55:58.347Z,41.72
2018-03-20T05:58:27.466Z,45.22
2018-03-20T06:00:57.451Z,52.53
2018-03-20T06:03:25.756Z,47.10
2018-03-20T06:05:54.090Z,44.88
2018-03-20T06:08:24.248Z,41.58
2018-03-20T06:10:53.119Z,53.45
2018-03-20T06:13:21.498Z,42.92
2018-03-20T06:15:50.975Z,42.62
2018-03-20T06:18:20.041Z,46.20
2018-03-20T06:20:50.004Z,46.13
2018-03-20T06:23:20.129Z,46.65
2018-03-20T06:25:49.191Z,44.33
2018-03-20T06:28:17.991Z,43.60
2018-03-20T06:30:46.900Z,47.30
2018-03-20T06:33:15.580Z,48.38
2018-03-20T06:35:43.910Z,47.92
2018-03-20T06:38:14.457Z,48.13
2018-03-20T06:40:43.299Z,42.05
2018-03-20T06:43:11.657Z,51.60
2018-03-20T06:45:40.832Z,47.47
2018-03-20T06:48:11.293Z,51.00
2018-03-20T06:50:42.299Z,51.15
2018-03-20T06:53:12.413Z,49.80
2018-03-20T06:55:42.014Z,45.88
2018-03-20T06:58:10.731Z,40.97
2018-03-20T07:00:39.023Z,46.35
2018-03-20T07:03:07.333Z,51.42
2018-03-20T07:05:36.747Z,44.15
2018-03-20T07:08:05.044Z,56.97
2018-03-20T07:10:34.128Z,47.38
2018-03-20T07:13:02.900Z,45.38
2018-03-20T07:15:31.274Z,34.00
2018-03-20T07:18:00.385Z,44.53
2018-03-20T07:20:28.914Z,33.38
2018-03-20T07:22:58.778Z,36.90
2018-03-20T07:25:27.098Z,38.30
2018-03-20T07:27:57.241Z,36.92
2018-03-20T07:30:26.314Z,36.13
2018-03-20T07:32:54.659Z,33.03
2018-03-20T07:35:23.834Z,34.97
2018-03-20T07:37:52.126Z,46.63
2018-03-20T07:40:20.474Z,34.55
2018-03-20T07:42:50.176Z,31.95
2018-03-20T07:45:19.258Z,44.85
2018-03-20T07:47:47.586Z,33.85
2018-03-20T07:50:17.772Z,39.92
2018-03-20T07:52:46.567Z,38.80
2018-03-20T07:55:15.656Z,33.60
2018-03-20T07:57:45.002Z,29.80
2018-03-20T08:00:14.058Z,25.92
2018-03-20T08:02:42.371Z,35.40
2018-03-20T08:05:11.832Z,39.17
2018-03-20T08:07:40.133Z,32.65
2018-03-20T08:10:08.437Z,31.12
2018-03-20T08:12:38.035Z,26.75
2018-03-20T08:15:07.108Z,40.10
2018-03-20T08:17:35.417Z,29.77
2018-03-20T08:20:04.841Z,30.77
2018-03-20T08:22:33.652Z,29.58
2018-03-20T08:25:03.328Z,34.83
2018-03-20T08:27:32.862Z,34.85
2018-03-20T08:30:01.944Z,33.58
2018-03-20T08:32:31.037Z,22.62
2018-03-20T08:35:00.177Z,32.35
2018-03-20T08:37:28.519Z,22.52
2018-03-20T08:39:56.823Z,27.50
2018-03-20T08:42:26.748Z,18.52
2018-03-20T08:44:55.084Z,24.80
2018-03-20T08:47:23.395Z,32.70
2018-03-20T08:49:52.865Z,67.97
2018-03-20T08:52:21.143Z,39.72
2018-03-20T08:54:49.442Z,26.70
2018-03-20T08:57:18.558Z,20.05
2018-03-20T08:59:46.869Z,20.02
2018-03-20T09:02:16.041Z,19.70
2018-03-20T09:04:45.246Z,17.08
2018-03-20T09:07:13.567Z,15.85
2018-03-20T09:09:41.887Z,19.62
2018-03-20T09:12:11.315Z,23.62
2018-03-20T09:14:39.617Z,22.48
2018-03-20T09:17:08.684Z,25.75
2018-03-20T09:19:38.097Z,23.50
2018-03-20T09:22:07.172Z,22.37
2018-03-20T09:24:35.451Z,21.98
2018-03-20T09:27:06.435Z,23.70
2018-03-20T09:29:34.723Z,22.75
2018-03-20T09:32:03.018Z,23.67
2018-03-20T09:34:32.651Z,22.87
2018-03-20T09:37:00.926Z,23.92
2018-03-20T09:39:29.224Z,22.35
2018-03-20T09:41:58.864Z,21.58
2018-03-20T09:44:27.163Z,31.02
2018-03-20T09:46:55.470Z,23.10
2018-03-20T09:49:24.528Z,21.50
2018-03-20T09:51:52.828Z,24.52
2018-03-20T09:54:21.889Z,27.23
2018-03-20T09:56:50.188Z,24.02
2018-03-20T09:59:19.511Z,19.42
2018-03-20T10:01:48.796Z,18.40
2018-03-20T10:04:17.069Z,23.50
2018-03-20T10:06:46.026Z,22.70
2018-03-20T10:09:14.335Z,23.40
2018-03-20T10:11:42.623Z,25.02
2018-03-20T10:14:11.948Z,22.90
2018-03-20T10:16:40.233Z,26.83
2018-03-20T10:19:08.524Z,26.20
2018-03-20T10:21:38.430Z,21.50
2018-03-20T10:24:06.732Z,22.15
2018-03-20T10:26:35.797Z,18.98
2018-03-20T10:29:06.669Z,25.02
2018-03-20T10:31:35.739Z,23.58
2018-03-20T10:34:04.067Z,20.33
2018-03-20T10:36:33.245Z,25.35
2018-03-20T10:39:02.302Z,24.37
2018-03-20T10:41:30.614Z,18.83
2018-03-20T10:43:59.731Z,17.90
2018-03-20T10:46:28.790Z,17.10
2018-03-20T10:48:57.089Z,18.17
2018-03-20T10:51:26.293Z,17.37
2018-03-20T10:53:55.361Z,16.40
2018-03-20T10:56:23.673Z,15.00
2018-03-20T10:58:52.713Z,12.50
2018-03-20T11:01:26.630Z,22.63
2018-03-20T11:03:55.612Z,11.40
2018-03-20T11:06:24.651Z,10.87
2018-03-20T11:08:52.946Z,10.30
2018-03-20T11:11:22.244Z,11.03
2018-03-20T11:13:50.577Z,13.40
2018-03-20T11:16:19.618Z,11.37
2018-03-20T11:18:49.075Z,14.07
2018-03-20T11:21:18.171Z,15.67
2018-03-20T11:23:47.240Z,12.30
2018-03-20T11:26:16.241Z,15.67
2018-03-20T11:28:44.570Z,18.47
2018-03-20T11:31:14.445Z,21.37
2018-03-20T11:33:43.769Z,18.85
2018-03-20T11:36:12.091Z,21.70
2018-03-20T11:38:40.403Z,19.08
2018-03-20T11:41:09.745Z,22.15
2018-03-20T11:43:38.093Z,19.10
2018-03-20T11:46:06.416Z,20.20
2018-03-20T11:48:37.050Z,18.15
2018-03-20T11:51:06.124Z,20.75
2018-03-20T11:53:34.468Z,20.62
2018-03-20T11:56:03.406Z,22.83
2018-03-20T11:58:32.488Z,21.27
2018-03-20T12:01:01.612Z,19.08
2018-03-20T12:03:30.749Z,16.00
2018-03-20T12:05:59.803Z,19.08
2018-03-20T12:08:41.548Z,19.73
2018-03-20T12:11:09.852Z,20.48
2018-03-20T12:13:38.236Z,16.83
2018-03-20T12:16:06.547Z,20.15
2018-03-20T12:18:36.874Z,22.40
2018-03-20T12:21:05.379Z,19.62
2018-03-20T12:23:33.966Z,22.08
2018-03-20T12:26:03.160Z,16.02
2018-03-20T12:28:32.214Z,24.53
2018-03-20T12:31:04.767Z,18.10
2018-03-20T12:33:34.205Z,27.37
2018-03-20T12:36:02.546Z,18.37
2018-03-20T12:38:31.916Z,16.07
2018-03-20T12:41:00.204Z,36.57
2018-03-20T12:43:28.509Z,23.33
2018-03-20T12:45:57.522Z,19.63
2018-03-20T12:48:25.839Z,25.20
2018-03-20T12:50:54.143Z,17.70
2018-03-20T12:53:24.258Z,19.17
2018-03-20T12:55:52.588Z,16.10
2018-03-20T12:58:20.958Z,16.70
2018-03-20T13:00:50.837Z,20.73
2018-03-20T13:03:19.146Z,16.80
2018-03-20T13:05:48.200Z,19.83
2018-03-20T13:08:16.506Z,17.13
2018-03-20T13:10:45.802Z,18.53
2018-03-20T13:13:14.138Z,24.30
2018-03-20T13:15:43.192Z,17.77
2018-03-20T13:18:13.638Z,18.20
2018-03-20T13:20:42.701Z,17.53
2018-03-20T13:23:11.783Z,18.30
2018-03-20T13:25:40.915Z,15.90
2018-03-20T13:28:09.196Z,19.47
2018-03-20T13:30:37.478Z,16.40
2018-03-20T13:33:06.851Z,23.60
2018-03-20T13:35:36.785Z,18.20
2018-03-20T13:38:05.070Z,19.23
2018-03-20T13:40:34.179Z,18.97
2018-03-20T13:43:02.478Z,17.00
2018-03-20T13:45:30.792Z,16.70
2018-03-20T13:47:59.074Z,19.62
2018-03-20T13:50:28.268Z,19.50
2018-03-20T13:52:56.579Z,22.33
2018-03-20T13:55:24.837Z,18.62
2018-03-20T13:57:54.031Z,19.98
2018-03-20T14:00:22.322Z,20.92
2018-03-20T14:02:50.637Z,22.85
2018-03-20T14:05:20.260Z,16.55
2018-03-20T14:07:48.579Z,15.55
2018-03-20T14:10:16.851Z,19.10
2018-03-20T14:12:46.911Z,18.23
2018-03-20T14:15:15.204Z,15.88
2018-03-20T14:17:43.513Z,19.92
2018-03-20T14:20:12.739Z,15.50
2018-03-20T14:22:41.789Z,18.50
2018-03-20T14:25:10.887Z,18.50
2018-03-20T14:27:39.757Z,19.90
2018-03-20T14:30:08.042Z,23.58
2018-03-20T14:32:36.323Z,17.35
2018-03-20T14:35:05.375Z,18.70
2018-03-20T14:37:34.934Z,17.67
2018-03-20T14:40:03.311Z,19.67
2018-03-20T14:42:31.638Z,15.82
2018-03-20T14:45:00.874Z,16.20
2018-03-20T14:47:29.208Z,15.03
2018-03-20T14:49:57.488Z,15.50
2018-03-20T14:52:26.214Z,14.10
2018-03-20T14:54:56.008Z,15.17
2018-03-20T14:57:24.336Z,17.77
2018-03-20T14:59:54.862Z,13.47
2018-03-20T15:02:23.170Z,18.90
2018-03-20T15:04:51.599Z,15.20
2018-03-20T15:07:21.312Z,18.00
2018-03-20T15:09:49.619Z,17.17
2018-03-20T15:12:18.678Z,17.70
2018-03-20T15:14:48.107Z,15.85
2018-03-20T15:17:16.386Z,18.77
2018-03-20T15:19:44.816Z,16.08
2018-03-20T15:22:13.871Z,14.80
2018-03-20T15:24:42.165Z,13.70
2018-03-20T15:27:11.842Z,18.67
2018-03-20T15:29:41.072Z,17.75
2018-03-20T15:32:10.137Z,20.88
2018-03-20T15:34:38.435Z,16.67
2018-03-20T15:37:08.314Z,14.77
2018-03-20T15:39:38.201Z,16.27
2018-03-20T15:42:07.642Z,17.25
2018-03-20T15:44:36.862Z,16.70
2018-03-20T15:47:05.180Z,18.70
2018-03-20T15:49:34.253Z,19.27
2018-03-20T15:52:03.677Z,12.25
2018-03-20T15:54:31.986Z,17.65
2018-03-20T15:57:01.033Z,16.15
2018-03-20T15:59:30.243Z,18.27
2018-03-20T16:01:58.599Z,19.08
2018-03-20T16:04:27.006Z,13.77
2018-03-20T16:06:56.864Z,14.35
2018-03-20T16:09:26.781Z,19.65
2018-03-20T16:11:55.858Z,18.17
2018-03-20T16:14:24.996Z,20.75
2018-03-20T16:16:54.041Z,18.73
2018-03-20T16:19:23.290Z,14.73
2018-03-20T16:21:51.668Z,19.20
2018-03-20T16:24:19.969Z,18.55
2018-03-20T16:26:48.736Z,20.10
2018-03-20T16:29:17.013Z,17.90
2018-03-20T16:31:46.079Z,19.48
2018-03-20T16:34:15.506Z,26.60
2018-03-20T16:36:45.502Z,24.55
2018-03-20T16:39:13.818Z,22.45
2018-03-20T16:41:45.214Z,19.95
2018-03-20T16:44:13.502Z,21.90
2018-03-20T16:46:41.814Z,20.92
2018-03-20T16:49:11.456Z,18.75
2018-03-20T16:54:15.889Z,19.48
2018-03-20T16:56:44.243Z,21.25
2018-03-20T16:59:12.562Z,14.30
2018-03-20T17:01:42.458Z,18.30
2018-03-20T17:04:10.757Z,25.58
2018-03-20T17:06:39.043Z,21.02
2018-03-20T17:09:08.787Z,23.50
2018-03-20T17:11:37.160Z,20.52
2018-03-20T17:14:05.450Z,17.77
2018-03-20T17:16:35.421Z,22.23
2018-03-20T17:19:03.723Z,20.00
2018-03-20T17:21:32.805Z,20.10
2018-03-20T17:24:02.245Z,23.40
2018-03-20T17:26:30.579Z,13.60
2018-03-20T17:28:58.858Z,19.10
2018-03-20T17:31:27.152Z,23.87
2018-03-20T17:33:56.475Z,13.15
2018-03-20T17:36:24.771Z,13.15
2018-03-20T17:38:53.863Z,17.65
2018-03-20T17:41:23.147Z,16.65
2018-03-20T17:43:52.823Z,20.42
2018-03-20T17:46:21.128Z,17.83
2018-03-20T17:48:49.417Z,14.63
2018-03-20T17:51:19.070Z,18.83
2018-03-20T17:53:48.437Z,21.73
2018-03-20T17:56:16.722Z,15.00
2018-03-20T17:58:45.002Z,17.60
2018-03-20T18:01:14.579Z,17.25
2018-03-20T18:03:42.869Z,16.85
2018-03-20T18:06:11.189Z,14.87
2018-03-20T18:08:41.608Z,17.58
2018-03-20T18:11:09.900Z,12.77
2018-03-20T18:13:38.182Z,17.73
2018-03-20T18:16:07.158Z,16.40
2018-03-20T18:18:35.498Z,16.27
2018-03-20T18:21:03.943Z,17.70
2018-03-20T18:23:32.718Z,17.77
2018-03-20T18:26:01.009Z,18.60
2018-03-20T18:28:29.300Z,17.48
2018-03-20T18:30:58.486Z,13.75
2018-03-20T18:33:26.812Z,12.90
2018-03-20T18:35:55.849Z,13.20
2018-03-20T18:38:25.168Z,15.13
2018-03-20T18:40:53.610Z,17.92
2018-03-20T18:43:21.936Z,12.77
2018-03-20T18:45:52.726Z,15.57
2018-03-20T18:48:21.028Z,13.98
2018-03-20T18:50:49.331Z,17.90
2018-03-20T18:53:18.862Z,16.85
2018-03-20T18:55:47.142Z,15.95
2018-03-20T18:58:15.438Z,15.90
2018-03-20T19:00:45.700Z,15.82
2018-03-20T19:03:14.050Z,18.02
2018-03-20T19:05:43.114Z,19.17
2018-03-20T19:08:12.831Z,22.35
2018-03-20T19:10:41.136Z,17.35
2018-03-20T19:13:10.184Z,18.02
2018-03-20T19:15:39.326Z,17.50
2018-03-20T19:18:08.386Z,22.70
2018-03-20T19:20:36.761Z,17.80
2018-03-20T19:23:06.002Z,19.50
2018-03-20T19:25:34.340Z,26.33
2018-03-20T19:28:02.671Z,22.17
2018-03-20T19:30:31.365Z,26.10
2018-03-20T19:33:00.433Z,21.00
2018-03-20T19:35:28.738Z,25.12
2018-03-20T19:37:57.427Z,24.85
2018-03-20T19:40:26.923Z,24.00
2018-03-20T19:42:55.218Z,27.10
2018-03-20T19:45:24.441Z,24.02
2018-03-20T19:47:54.662Z,25.45
2018-03-20T19:50:22.979Z,24.05
2018-03-20T19:52:52.387Z,24.73
2018-03-20T19:55:20.939Z,24.10
2018-03-20T19:57:49.274Z,25.50
2018-03-20T20:00:18.693Z,32.58
2018-03-20T20:02:48.524Z,22.75
2018-03-20T20:05:17.786Z,28.20
2018-03-20T20:07:46.118Z,28.83
2018-03-20T20:10:14.864Z,25.15
2018-03-20T20:12:43.227Z,35.83
2018-03-20T20:15:11.549Z,29.65
2018-03-20T20:17:40.778Z,27.80
2018-03-20T20:20:17.106Z,26.73
2018-03-20T20:22:50.171Z,28.40
2018-03-20T20:25:18.688Z,31.70
2018-03-20T20:27:47.053Z,25.55
2018-03-20T20:30:17.064Z,29.40
2018-03-20T20:32:46.166Z,32.00
2018-03-20T20:35:14.710Z,34.13
2018-03-20T20:37:43.491Z,32.30
2018-03-20T20:40:12.098Z,33.95
2018-03-20T20:42:40.669Z,31.90
2018-03-20T20:45:09.931Z,32.53
2018-03-20T20:47:38.537Z,37.90
2018-03-20T20:50:10.049Z,34.30
2018-03-20T20:52:39.580Z,29.95
2018-03-20T20:55:16.362Z,35.08
2018-03-20T20:57:47.738Z,31.60
2018-03-20T21:00:16.667Z,28.33
2018-03-20T21:02:45.732Z,35.35
2018-03-20T21:05:14.838Z,32.22
2018-03-20T21:07:44.765Z,40.70
2018-03-20T21:10:13.434Z,35.35
2018-03-20T21:12:42.817Z,35.00
2018-03-20T21:15:11.155Z,37.83
2018-03-20T21:17:39.433Z,40.28
2018-03-20T21:20:08.782Z,41.17
2018-03-20T21:22:37.137Z,44.97
2018-03-20T21:25:06.228Z,43.83
2018-03-20T21:27:36.007Z,45.35
2018-03-20T21:30:04.354Z,41.58
2018-03-20T21:32:32.642Z,43.95
2018-03-20T21:35:01.433Z,46.35
2018-03-20T21:37:30.003Z,46.47
2018-03-20T21:39:59.093Z,53.10
2018-03-20T21:42:28.997Z,48.25
2018-03-20T21:44:57.301Z,47.90
2018-03-20T21:47:26.359Z,48.90
2018-03-20T21:49:55.116Z,47.80
2018-03-20T21:52:23.881Z,47.45
2018-03-20T21:54:52.948Z,46.05
2018-03-20T21:57:21.652Z,41.92
2018-03-20T21:59:50.713Z,51.30
2018-03-20T22:02:19.003Z,52.25
2018-03-20T22:04:48.388Z,46.90
2018-03-20T22:07:16.702Z,49.20
2018-03-20T22:09:45.033Z,42.42
2018-03-20T22:12:13.786Z,42.40
2018-03-20T22:14:42.094Z,55.90
2018-03-20T22:17:10.403Z,50.95
2018-03-20T22:19:39.444Z,48.17
2018-03-20T22:22:07.754Z,47.50
2018-03-20T22:24:36.852Z,44.58
2018-03-20T22:27:05.780Z,55.95
2018-03-20T22:29:34.095Z,46.17
2018-03-20T22:32:02.396Z,55.10
2018-03-20T22:34:32.840Z,50.20
2018-03-20T22:37:03.390Z,47.05
2018-03-20T22:39:32.450Z,46.85
2018-03-20T22:42:01.142Z,58.60
2018-03-20T22:44:29.450Z,55.72
2018-03-20T22:46:57.726Z,58.78
2018-03-20T22:49:26.792Z,66.35
2018-03-20T22:51:56.143Z,55.78
2018-03-20T22:54:25.263Z,60.28
2018-03-20T22:56:53.483Z,58.25
2018-03-20T22:59:22.173Z,61.75
2018-03-20T23:01:50.473Z,64.87
2018-03-20T23:04:19.536Z,58.80
2018-03-20T23:06:48.469Z,69.87
2018-03-20T23:09:17.541Z,61.85
2018-03-20T23:11:45.931Z,66.47
2018-03-20T23:14:14.832Z,68.03
2018-03-20T23:16:43.121Z,68.82
2018-03-20T23:19:11.413Z,68.85
2018-03-20T23:21:41.205Z,66.72
2018-03-20T23:24:09.500Z,71.32
2018-03-20T23:26:37.786Z,72.80
2018-03-20T23:29:06.895Z,67.12
2018-03-20T23:31:35.964Z,64.05
2018-03-20T23:34:04.271Z,75.90
2018-03-20T23:36:33.897Z,74.90
2018-03-20T23:39:04.382Z,79.87
2018-03-20T23:41:33.472Z,75.28
2018-03-20T23:44:02.815Z,65.50
2018-03-20T23:46:31.102Z,75.87
2018-03-20T23:49:00.161Z,77.65
2018-03-20T23:51:28.562Z,85.53
2018-03-20T23:53:57.667Z,67.05
2018-03-20T23:56:25.956Z,75.40
2018-03-20T23:58:54.257Z,77.60
